createdAt,value
2023-09-12T00:02:21.091Z,0
2023-09-12T00:04:47.191Z,0
2023-09-12T00:07:13.288Z,0
2023-09-12T00:09:38.409Z,0
2023-09-12T00:12:04.483Z,0
2023-09-12T00:14:30.572Z,0
2023-09-12T00:16:56.670Z,0
2023-09-12T00:19:22.887Z,0
2023-09-12T00:21:48.863Z,0
2023-09-12T00:24:14.960Z,0
2023-09-12T00:26:41.058Z,0
2023-09-12T00:29:07.153Z,0
2023-09-12T00:31:33.245Z,0
2023-09-12T00:33:59.349Z,0
2023-09-12T00:36:25.436Z,0
2023-09-12T00:38:51.521Z,0
2023-09-12T00:41:16.653Z,0
2023-09-12T00:46:08.827Z,0
2023-09-12T00:48:34.923Z,0
2023-09-12T00:51:01.026Z,0
2023-09-12T00:53:27.156Z,0
2023-09-12T00:55:53.204Z,0
2023-09-12T00:58:18.317Z,0
2023-09-12T01:00:44.416Z,0
2023-09-12T01:03:10.512Z,0
2023-09-12T01:05:36.599Z,0
2023-09-12T01:08:02.737Z,0
2023-09-12T01:10:28.796Z,0
2023-09-12T01:12:54.873Z,0
2023-09-12T01:15:20.972Z,0
2023-09-12T01:17:47.066Z,0
2023-09-12T01:20:13.176Z,0
2023-09-12T01:22:39.260Z,0
2023-09-12T01:25:05.355Z,0
2023-09-12T01:27:31.454Z,0
2023-09-12T01:29:56.550Z,0
2023-09-12T01:32:22.642Z,0
2023-09-12T01:34:48.732Z,0
2023-09-12T01:37:14.852Z,0
2023-09-12T01:39:40.941Z,0
2023-09-12T01:42:07.052Z,0
2023-09-12T01:44:33.313Z,0
2023-09-12T01:46:59.196Z,0
2023-09-12T01:49:25.302Z,0
2023-09-12T01:51:51.385Z,0
2023-09-12T01:54:17.493Z,0
2023-09-12T01:56:43.592Z,0
2023-09-12T01:59:09.690Z,0
2023-09-12T02:01:34.779Z,0
2023-09-12T02:04:00.884Z,0
2023-09-12T02:06:27.004Z,0
2023-09-12T02:08:53.072Z,0
2023-09-12T02:11:19.177Z,0
2023-09-12T02:13:45.260Z,0
2023-09-12T02:16:11.432Z,0
2023-09-12T02:18:37.440Z,0
2023-09-12T02:21:03.536Z,0
2023-09-12T02:23:29.644Z,0
2023-09-12T02:25:55.747Z,0
2023-09-12T02:28:21.848Z,0
2023-09-12T02:30:47.980Z,0
2023-09-12T02:33:13.034Z,0
2023-09-12T02:35:39.129Z,0
2023-09-12T02:38:05.303Z,0
2023-09-12T02:40:31.312Z,0
2023-09-12T02:42:57.415Z,0
2023-09-12T02:45:23.517Z,0
2023-09-12T02:47:49.711Z,0
2023-09-12T02:50:15.723Z,0
2023-09-12T02:52:41.786Z,0
2023-09-12T02:55:07.902Z,0
2023-09-12T02:57:34.003Z,0
2023-09-12T03:00:00.092Z,0
2023-09-12T03:02:26.187Z,0
2023-09-12T03:04:51.303Z,0
2023-09-12T03:07:17.379Z,0
2023-09-12T03:09:43.492Z,0
2023-09-12T03:12:09.601Z,0
2023-09-12T03:17:01.775Z,0
2023-09-12T03:19:27.880Z,0
2023-09-12T03:21:53.965Z,0
2023-09-12T03:24:20.065Z,0
2023-09-12T03:26:46.144Z,0
2023-09-12T03:29:12.248Z,0
2023-09-12T03:31:38.342Z,0
2023-09-12T03:34:04.435Z,0
2023-09-12T03:36:29.542Z,0
2023-09-12T03:38:55.641Z,0
2023-09-12T03:41:21.741Z,0
2023-09-12T03:43:47.831Z,0
2023-09-12T03:46:13.921Z,0
2023-09-12T03:48:40.016Z,0
2023-09-12T03:51:06.114Z,0
2023-09-12T03:53:32.267Z,0
2023-09-12T03:55:58.309Z,0
2023-09-12T03:58:24.396Z,0
2023-09-12T04:00:50.508Z,0
2023-09-12T04:03:16.609Z,0
2023-09-12T04:05:42.679Z,0
2023-09-12T04:08:07.827Z,0
2023-09-12T04:10:33.894Z,0
2023-09-12T04:12:59.983Z,0
2023-09-12T04:15:26.180Z,0
2023-09-12T04:17:52.192Z,0
2023-09-12T04:20:18.290Z,0
2023-09-12T04:22:44.367Z,0
2023-09-12T04:25:10.502Z,4
2023-09-12T04:27:36.565Z,0
2023-09-12T04:30:02.653Z,4
2023-09-12T04:32:28.750Z,8
2023-09-12T04:34:54.844Z,12
2023-09-12T04:37:20.939Z,16
2023-09-12T04:39:46.069Z,24
2023-09-12T04:42:12.176Z,44
2023-09-12T04:44:38.251Z,60
2023-09-12T04:47:04.349Z,84
2023-09-12T04:49:30.446Z,116
2023-09-12T04:51:56.526Z,160
2023-09-12T04:54:22.637Z,212
2023-09-12T04:56:48.735Z,277
2023-09-12T04:59:14.829Z,349
2023-09-12T05:01:40.917Z,433
2023-09-12T05:04:07.021Z,538
2023-09-12T05:06:33.120Z,654
2023-09-12T05:08:59.210Z,734
2023-09-12T05:11:24.309Z,847
2023-09-12T05:13:50.405Z,995
2023-09-12T05:16:16.498Z,1140
2023-09-12T05:18:42.596Z,1301
2023-09-12T05:21:08.689Z,1525
2023-09-12T05:23:34.800Z,1786
2023-09-12T05:26:00.889Z,2039
2023-09-12T05:28:26.992Z,2188
2023-09-12T05:30:53.123Z,2337
2023-09-12T05:33:19.174Z,2449
2023-09-12T05:35:45.293Z,2541
2023-09-12T05:38:11.369Z,2574
2023-09-12T05:40:37.487Z,2578
2023-09-12T05:43:02.583Z,2501
2023-09-12T05:45:28.682Z,2401
2023-09-12T05:47:54.774Z,2549
2023-09-12T05:50:20.862Z,2911
2023-09-12T05:52:46.951Z,3184
2023-09-12T05:55:13.048Z,3329
2023-09-12T05:57:39.135Z,3417
2023-09-12T06:00:05.242Z,3505
2023-09-12T06:02:31.341Z,3529
2023-09-12T06:04:57.429Z,3493
2023-09-12T06:07:23.568Z,3561
2023-09-12T06:09:49.620Z,3549
2023-09-12T06:12:15.701Z,3810
2023-09-12T06:14:40.826Z,3822
2023-09-12T06:17:06.920Z,3963
2023-09-12T06:19:33.007Z,4188
2023-09-12T06:21:59.172Z,4445
2023-09-12T06:24:25.268Z,4441
2023-09-12T06:26:51.459Z,4481
2023-09-12T06:29:17.395Z,4381
2023-09-12T06:31:43.580Z,4433
2023-09-12T06:34:09.579Z,4674
2023-09-12T06:36:35.672Z,5027
2023-09-12T06:39:01.779Z,5364
2023-09-12T06:41:27.864Z,5385
2023-09-12T06:43:53.988Z,5674
2023-09-12T06:46:19.114Z,6164
2023-09-12T06:48:45.256Z,6866
2023-09-12T06:51:11.360Z,7561
2023-09-12T06:53:37.451Z,7702
2023-09-12T06:56:03.485Z,7392
2023-09-12T06:58:29.532Z,7143
2023-09-12T07:00:55.775Z,7007
2023-09-12T07:03:21.836Z,6794
2023-09-12T07:05:47.986Z,6557
2023-09-12T07:08:13.969Z,6288
2023-09-12T07:10:40.068Z,5927
2023-09-12T07:13:06.091Z,5461
2023-09-12T07:15:32.197Z,5425
2023-09-12T07:17:57.441Z,5565
2023-09-12T07:20:23.540Z,5577
2023-09-12T07:25:15.609Z,6212
2023-09-12T07:27:41.677Z,6493
2023-09-12T07:30:07.965Z,7047
2023-09-12T07:32:33.876Z,7360
2023-09-12T07:34:59.987Z,7027
2023-09-12T07:37:26.189Z,6802
2023-09-12T07:39:52.151Z,6429
2023-09-12T07:42:18.270Z,6336
2023-09-12T07:44:44.403Z,6621
2023-09-12T07:47:10.446Z,6726
2023-09-12T07:49:35.629Z,6983
2023-09-12T07:52:01.654Z,7147
2023-09-12T07:54:27.734Z,7220
2023-09-12T07:56:53.812Z,7172
2023-09-12T07:59:19.933Z,7798
2023-09-12T08:01:46.057Z,8167
2023-09-12T08:04:12.233Z,7621
2023-09-12T08:06:38.195Z,7433
2023-09-12T08:13:56.488Z,9376
2023-09-12T08:16:21.600Z,10047
2023-09-12T08:18:46.936Z,10424
2023-09-12T08:21:12.975Z,10468
2023-09-12T08:23:38.962Z,10199
2023-09-12T08:26:05.121Z,9677
2023-09-12T08:28:31.138Z,9276
2023-09-12T08:30:57.307Z,9171
2023-09-12T08:33:23.325Z,9079
2023-09-12T08:40:41.594Z,8954
2023-09-12T08:43:07.771Z,9473
2023-09-12T08:45:32.828Z,9561
2023-09-12T08:47:58.114Z,9364
2023-09-12T08:50:24.000Z,9151
2023-09-12T08:52:50.091Z,9657
2023-09-12T08:55:16.228Z,10300
2023-09-12T08:57:42.277Z,10553
2023-09-12T09:00:08.732Z,10733
2023-09-12T09:02:34.780Z,10497
2023-09-12T09:05:00.865Z,9902
2023-09-12T09:07:25.914Z,8967
2023-09-12T09:09:51.154Z,7344
2023-09-12T09:12:16.183Z,6802
2023-09-12T09:14:42.144Z,6421
2023-09-12T09:17:08.230Z,5991
2023-09-12T09:19:34.316Z,5597
2023-09-12T09:22:00.420Z,5304
2023-09-12T09:24:26.474Z,5332
2023-09-12T09:26:52.513Z,5252
2023-09-12T09:29:18.569Z,5160
2023-09-12T09:31:44.661Z,5087
2023-09-12T09:34:09.826Z,4975
2023-09-12T09:36:35.005Z,4871
2023-09-12T09:39:01.002Z,4818
2023-09-12T09:41:27.090Z,4818
2023-09-12T09:43:53.329Z,4810
2023-09-12T09:46:19.378Z,4802
2023-09-12T09:48:45.451Z,4895
2023-09-12T09:51:11.464Z,4967
2023-09-12T09:53:37.562Z,4983
2023-09-12T09:56:03.690Z,5063
2023-09-12T09:58:29.747Z,5120
2023-09-12T10:00:55.856Z,5111
2023-09-12T10:03:21.938Z,5208
2023-09-12T10:05:48.031Z,5240
2023-09-12T10:08:13.237Z,5268
2023-09-12T10:10:39.231Z,5280
2023-09-12T10:13:05.454Z,5328
2023-09-12T10:15:31.490Z,5509
2023-09-12T10:17:57.568Z,5513
2023-09-12T10:20:23.630Z,5609
2023-09-12T10:22:49.951Z,5666
2023-09-12T10:25:16.154Z,5678
2023-09-12T10:27:42.132Z,5694
2023-09-12T10:30:08.405Z,5726
2023-09-12T10:32:34.402Z,5770
2023-09-12T10:35:00.394Z,5838
2023-09-12T10:37:26.677Z,5947
2023-09-12T10:39:51.687Z,6063
2023-09-12T10:42:17.545Z,6176
2023-09-12T10:44:43.858Z,6232
2023-09-12T10:47:09.793Z,6401
2023-09-12T10:49:35.930Z,6521
2023-09-12T10:52:02.129Z,6621
2023-09-12T10:54:28.168Z,6794
2023-09-12T10:56:54.036Z,6963
2023-09-12T10:59:20.442Z,7031
2023-09-12T11:01:46.604Z,7143
2023-09-12T11:04:12.614Z,7103
2023-09-12T11:06:38.699Z,6975
2023-09-12T11:09:04.514Z,7228
2023-09-12T11:11:29.919Z,7445
2023-09-12T11:13:55.975Z,7533
2023-09-12T11:16:22.013Z,7565
2023-09-12T11:18:48.167Z,7686
2023-09-12T11:21:14.439Z,7316
2023-09-12T11:23:40.200Z,7517
2023-09-12T11:26:06.186Z,7694
2023-09-12T11:28:32.319Z,7734
2023-09-12T11:30:58.403Z,7846
2023-09-12T11:33:24.728Z,7404
2023-09-12T11:35:50.637Z,7806
2023-09-12T11:38:17.033Z,7758
2023-09-12T11:40:43.057Z,7714
2023-09-12T11:43:08.021Z,7758
2023-09-12T11:45:33.967Z,7999
2023-09-12T11:48:00.067Z,8336
2023-09-12T11:50:26.170Z,8525
2023-09-12T11:52:52.420Z,8216
2023-09-12T11:55:18.352Z,7854
2023-09-12T11:57:44.548Z,7782
2023-09-12T12:00:10.653Z,7702
2023-09-12T12:02:36.717Z,7569
2023-09-12T12:05:02.764Z,7637
2023-09-12T12:07:28.920Z,7677
2023-09-12T12:09:54.929Z,7661
2023-09-12T12:12:21.057Z,7874
2023-09-12T12:14:46.174Z,8481
2023-09-12T12:17:12.229Z,9167
2023-09-12T12:19:38.330Z,10099
2023-09-12T12:22:04.471Z,10300
2023-09-12T12:24:30.559Z,10276
2023-09-12T12:26:56.600Z,9047
2023-09-12T12:29:22.843Z,8376
2023-09-12T12:31:48.847Z,8364
2023-09-12T12:34:14.895Z,8304
2023-09-12T12:36:41.345Z,8308
2023-09-12T12:39:07.347Z,8296
2023-09-12T12:41:33.547Z,8175
2023-09-12T12:43:59.432Z,8123
2023-09-12T12:46:24.613Z,8167
2023-09-12T12:48:50.515Z,8216
2023-09-12T12:51:16.777Z,8268
2023-09-12T12:53:43.132Z,8360
2023-09-12T12:56:08.782Z,8549
2023-09-12T12:58:35.083Z,8818
2023-09-12T13:01:01.068Z,9195
2023-09-12T13:03:27.062Z,9653
2023-09-12T13:05:53.352Z,9914
2023-09-12T13:08:19.264Z,9962
2023-09-12T13:10:45.350Z,9806
2023-09-12T13:13:11.516Z,9681
2023-09-12T13:15:37.634Z,9721
2023-09-12T13:18:03.291Z,9778
2023-09-12T13:20:28.791Z,9870
2023-09-12T13:22:54.865Z,10328
2023-09-12T13:25:20.935Z,11151
2023-09-12T13:27:47.028Z,10721
2023-09-12T13:30:13.359Z,11123
2023-09-12T13:32:39.330Z,11255
2023-09-12T13:35:05.458Z,11629
2023-09-12T13:37:31.638Z,12641
2023-09-12T13:39:57.584Z,12163
2023-09-12T13:42:23.773Z,12380
2023-09-12T13:44:49.698Z,12123
2023-09-12T13:47:15.957Z,11581
2023-09-12T13:49:40.931Z,10938
2023-09-12T13:52:07.023Z,8854
2023-09-12T13:54:33.151Z,11834
2023-09-12T13:59:25.589Z,11806
2023-09-12T14:01:51.632Z,21427
2023-09-12T14:04:17.627Z,59560
2023-09-12T14:06:43.830Z,49762
2023-09-12T14:09:09.784Z,56219
2023-09-12T14:11:35.991Z,53231
2023-09-12T14:14:02.222Z,49698
2023-09-12T14:16:28.012Z,48059
2023-09-12T14:18:54.046Z,59849
2023-09-12T14:21:19.251Z,57440
2023-09-12T14:23:45.419Z,51368
2023-09-12T14:26:11.560Z,39771
2023-09-12T14:28:37.770Z,20624
2023-09-12T14:31:03.538Z,12898
2023-09-12T14:33:29.649Z,9938
2023-09-12T14:35:55.715Z,8432
2023-09-12T14:38:22.110Z,6906
2023-09-12T14:40:48.280Z,6019
2023-09-12T14:43:14.362Z,5670
2023-09-12T14:45:40.389Z,5806
2023-09-12T14:48:06.352Z,6095
2023-09-12T14:50:32.643Z,6384
2023-09-12T14:52:57.476Z,6601
2023-09-12T14:55:23.573Z,6882
2023-09-12T14:57:49.832Z,7135
2023-09-12T15:00:16.031Z,7043
2023-09-12T15:02:41.955Z,6722
2023-09-12T15:05:08.134Z,6473
2023-09-12T15:07:34.204Z,6453
2023-09-12T15:10:00.472Z,6501
2023-09-12T15:12:26.164Z,6481
2023-09-12T15:14:52.583Z,6605
2023-09-12T15:17:18.566Z,6834
2023-09-12T15:19:44.508Z,6814
2023-09-12T15:22:10.722Z,6372
2023-09-12T15:24:35.937Z,5919
2023-09-12T15:27:02.010Z,5770
2023-09-12T15:29:28.046Z,5790
2023-09-12T15:31:54.257Z,5670
2023-09-12T15:34:20.050Z,5397
2023-09-12T15:36:46.147Z,5035
2023-09-12T15:39:12.255Z,4943
2023-09-12T15:41:38.341Z,5075
2023-09-12T15:44:04.439Z,4862
2023-09-12T15:46:30.846Z,4421
2023-09-12T15:48:56.623Z,4055
2023-09-12T15:51:22.728Z,3746
2023-09-12T15:53:48.942Z,3401
2023-09-12T15:56:13.922Z,3084
2023-09-12T15:58:40.001Z,2827
2023-09-12T16:01:06.124Z,2570
2023-09-12T16:03:32.251Z,2345
2023-09-12T16:05:58.307Z,2168
2023-09-12T16:08:24.389Z,2039
2023-09-12T16:10:50.508Z,1983
2023-09-12T16:13:16.591Z,1975
2023-09-12T16:15:42.686Z,2019
2023-09-12T16:18:08.791Z,2108
2023-09-12T16:20:34.858Z,2240
2023-09-12T16:23:00.986Z,2421
2023-09-12T16:25:27.069Z,2694
2023-09-12T16:27:52.171Z,3039
2023-09-12T16:30:18.409Z,4156
2023-09-12T16:32:44.366Z,7541
2023-09-12T16:35:10.459Z,9970
2023-09-12T16:37:36.559Z,6890
2023-09-12T16:40:02.650Z,5501
2023-09-12T16:42:28.736Z,4975
2023-09-12T16:44:54.845Z,4915
2023-09-12T16:47:20.945Z,4883
2023-09-12T16:49:47.033Z,4867
2023-09-12T16:52:13.116Z,4818
2023-09-12T16:54:39.235Z,4493
2023-09-12T16:57:05.305Z,4268
2023-09-12T16:59:30.425Z,4108
2023-09-12T17:01:56.511Z,3847
2023-09-12T17:04:22.610Z,3409
2023-09-12T17:06:48.691Z,3088
2023-09-12T17:09:14.796Z,2847
2023-09-12T17:11:40.902Z,2730
2023-09-12T17:14:06.991Z,2674
2023-09-12T17:16:32.107Z,2618
2023-09-12T17:18:58.184Z,2497
2023-09-12T17:21:24.300Z,2417
2023-09-12T17:23:50.425Z,2329
2023-09-12T17:26:16.477Z,1979
2023-09-12T17:28:42.565Z,1493
2023-09-12T17:31:08.664Z,1003
2023-09-12T17:33:34.772Z,666
2023-09-12T17:36:00.850Z,469
2023-09-12T17:38:26.949Z,325
2023-09-12T17:40:53.053Z,228
2023-09-12T17:43:19.129Z,184
2023-09-12T17:45:45.233Z,144
2023-09-12T17:48:10.365Z,112
2023-09-12T17:50:36.434Z,80
2023-09-12T17:53:02.541Z,60
2023-09-12T17:55:28.627Z,44
2023-09-12T17:57:54.728Z,28
2023-09-12T18:00:20.826Z,20
2023-09-12T18:02:46.907Z,12
2023-09-12T18:05:13.097Z,8
2023-09-12T18:07:39.107Z,4
2023-09-12T18:10:05.197Z,0
2023-09-12T18:12:31.307Z,4
2023-09-12T18:14:57.399Z,0
2023-09-12T18:17:23.476Z,0
2023-09-12T18:19:48.584Z,0
2023-09-12T18:22:14.739Z,0
2023-09-12T18:24:40.773Z,0
2023-09-12T18:27:06.869Z,0
2023-09-12T18:29:32.970Z,0
2023-09-12T18:31:59.096Z,0
2023-09-12T18:34:25.140Z,0
2023-09-12T18:36:51.304Z,0
2023-09-12T18:39:17.349Z,0
2023-09-12T18:41:43.457Z,0
2023-09-12T18:44:09.557Z,0
2023-09-12T18:46:35.634Z,0
2023-09-12T18:49:01.765Z,0
2023-09-12T18:51:26.900Z,0
2023-09-12T18:53:52.926Z,0
2023-09-12T18:56:19.048Z,0
2023-09-12T18:58:45.132Z,0
2023-09-12T19:01:11.213Z,0
2023-09-12T19:03:37.304Z,0
2023-09-12T19:06:03.403Z,0
2023-09-12T19:08:29.538Z,0
2023-09-12T19:10:55.591Z,0
2023-09-12T19:13:21.697Z,0
2023-09-12T19:15:47.788Z,0
2023-09-12T19:18:13.928Z,0
2023-09-12T19:20:39.974Z,0
2023-09-12T19:23:05.109Z,0
2023-09-12T19:25:31.195Z,0
2023-09-12T19:27:57.305Z,0
2023-09-12T19:30:23.381Z,0
2023-09-12T19:32:49.471Z,0
2023-09-12T19:35:15.575Z,0
2023-09-12T19:37:41.672Z,0
2023-09-12T19:40:07.763Z,0
2023-09-12T19:42:33.857Z,0
2023-09-12T19:44:59.935Z,0
2023-09-12T19:47:26.063Z,0
2023-09-12T19:49:52.129Z,0
2023-09-12T19:52:18.220Z,0
2023-09-12T19:54:43.350Z,0
2023-09-12T19:57:09.434Z,0
2023-09-12T19:59:35.523Z,0
2023-09-12T20:02:01.614Z,0
2023-09-12T20:04:27.722Z,0
2023-09-12T20:06:53.813Z,0
2023-09-12T20:09:20.051Z,0
2023-09-12T20:11:45.989Z,0
2023-09-12T20:14:12.113Z,0
2023-09-12T20:16:38.196Z,0
2023-09-12T20:19:04.290Z,0
2023-09-12T20:21:30.375Z,0
2023-09-12T20:23:56.490Z,0
2023-09-12T20:26:21.610Z,0
2023-09-12T20:28:47.674Z,0
2023-09-12T20:31:13.792Z,0
2023-09-12T20:33:39.886Z,0
2023-09-12T20:36:05.993Z,0
2023-09-12T20:38:32.069Z,0
2023-09-12T20:40:58.174Z,0
2023-09-12T20:43:24.257Z,0
2023-09-12T20:45:50.368Z,0
2023-09-12T20:48:16.486Z,0
2023-09-12T20:50:42.607Z,0
2023-09-12T20:53:08.634Z,0
2023-09-12T20:55:34.814Z,0
2023-09-12T20:57:59.851Z,0
2023-09-12T21:00:25.948Z,0
2023-09-12T21:02:52.069Z,0
2023-09-12T21:05:18.146Z,0
2023-09-12T21:07:44.223Z,0
2023-09-12T21:10:10.328Z,0
2023-09-12T21:12:36.402Z,0
2023-09-12T21:15:02.511Z,0
2023-09-12T21:17:28.600Z,0
2023-09-12T21:19:54.704Z,0
2023-09-12T21:22:20.813Z,0
2023-09-12T21:24:46.891Z,0
2023-09-12T21:27:12.980Z,0
2023-09-12T21:29:38.222Z,0
2023-09-12T21:32:04.295Z,0
2023-09-12T21:34:30.273Z,0
2023-09-12T21:36:56.382Z,0
2023-09-12T21:39:22.466Z,0
2023-09-12T21:41:48.571Z,0
2023-09-12T21:44:14.659Z,0
2023-09-12T21:46:40.750Z,0
2023-09-12T21:49:06.855Z,0
2023-09-12T21:51:32.943Z,0
2023-09-12T21:53:59.046Z,0
2023-09-12T21:56:25.127Z,0
2023-09-12T21:58:51.304Z,0
2023-09-12T22:01:16.344Z,0
2023-09-12T22:03:42.442Z,0
2023-09-12T22:06:08.532Z,0
2023-09-12T22:08:34.622Z,0
2023-09-12T22:11:00.703Z,0
2023-09-12T22:13:26.908Z,0
2023-09-12T22:15:52.909Z,0
2023-09-12T22:18:19.000Z,0
2023-09-12T22:20:45.103Z,0
2023-09-12T22:23:11.189Z,0
2023-09-12T22:25:37.282Z,0
2023-09-12T22:28:03.364Z,0
2023-09-12T22:30:29.476Z,0
2023-09-12T22:32:54.581Z,0
2023-09-12T22:35:20.684Z,0
2023-09-12T22:37:46.777Z,0
2023-09-12T22:40:12.868Z,0
2023-09-12T22:42:38.951Z,0
2023-09-12T22:45:05.058Z,0
2023-09-12T22:47:31.173Z,0
2023-09-12T22:49:57.256Z,0
2023-09-12T22:52:23.332Z,0
2023-09-12T22:54:49.436Z,0
2023-09-12T22:57:15.535Z,0
2023-09-12T22:59:41.647Z,0
2023-09-12T23:02:07.732Z,0
2023-09-12T23:04:32.832Z,0
2023-09-12T23:06:58.923Z,0
2023-09-12T23:09:24.994Z,0
2023-09-12T23:11:51.108Z,0
2023-09-12T23:14:17.207Z,0
2023-09-12T23:16:43.291Z,0
2023-09-12T23:19:09.380Z,0
2023-09-12T23:21:35.488Z,0
2023-09-12T23:24:01.565Z,0
2023-09-12T23:26:27.672Z,0
2023-09-12T23:28:53.780Z,0
2023-09-12T23:31:19.868Z,0
2023-09-12T23:33:45.963Z,0
2023-09-12T23:36:11.068Z,0
2023-09-12T23:38:37.166Z,0
2023-09-12T23:41:03.260Z,0
2023-09-12T23:43:29.359Z,0
2023-09-12T23:45:55.444Z,0
2023-09-12T23:48:21.535Z,0
2023-09-12T23:50:47.640Z,0
2023-09-12T23:53:13.743Z,0
2023-09-12T23:55:39.846Z,0
2023-09-12T23:58:05.914Z,0
